TimeEST,TemperatureF,Dew PointF,Humidity,Sea Level PressureIn,VisibilityMPH,Wind Direction,Wind SpeedMPH,Gust SpeedMPH,PrecipitationIn,Events,Conditions,WindDirDegrees,DateUTC
12:56 AM,62.1,60.1,93,30.19,9.0,Calm,Calm,-,N/A,,Clear,0,2012-11-13 05:56:00
1:56 AM,61.0,59.0,93,30.18,8.0,WSW,3.5,-,N/A,,Clear,250,2012-11-13 06:56:00
2:56 AM,62.1,60.1,93,30.17,8.0,Calm,Calm,-,N/A,,Clear,0,2012-11-13 07:56:00
3:56 AM,61.0,60.1,97,30.17,9.0,Calm,Calm,-,N/A,,Mostly Cloudy,0,2012-11-13 08:56:00
4:56 AM,60.1,59.0,96,30.17,10.0,Calm,Calm,-,N/A,,Mostly Cloudy,0,2012-11-13 09:56:00
5:56 AM,61.0,59.0,93,30.18,3.0,Calm,Calm,-,N/A,,Overcast,0,2012-11-13 10:56:00
6:45 AM,60.8,59.0,94,30.18,1.8,Calm,Calm,-,N/A,,Clear,0,2012-11-13 11:45:00
6:52 AM,60.8,59.0,94,30.19,1.2,Calm,Calm,-,N/A,,Clear,0,2012-11-13 11:52:00
6:56 AM,61.0,59.0,93,30.19,3.0,Calm,Calm,-,N/A,,Clear,0,2012-11-13 11:56:00
7:56 AM,63.0,61.0,93,30.21,10.0,North,3.5,-,N/A,,Overcast,350,2012-11-13 12:56:00
8:56 AM,64.9,61.0,87,30.23,10.0,NNW,5.8,-,N/A,,Mostly Cloudy,330,2012-11-13 13:56:00
9:56 AM,70.0,61.0,73,30.23,10.0,North,5.8,-,N/A,,Mostly Cloudy,350,2012-11-13 14:56:00
10:56 AM,73.9,62.1,66,30.21,10.0,NNW,4.6,-,N/A,,Scattered Clouds,340,2012-11-13 15:56:00
11:56 AM,75.0,63.0,66,30.19,10.0,NNW,5.8,-,N/A,,Overcast,340,2012-11-13 16:56:00
12:56 PM,73.9,63.0,68,30.17,10.0,NNW,9.2,-,N/A,,Overcast,340,2012-11-13 17:56:00
1:56 PM,73.9,63.0,68,30.15,10.0,North,9.2,-,N/A,,Overcast,350,2012-11-13 18:56:00
2:41 PM,73.4,62.6,69,30.15,10.0,North,6.9,-,N/A,,Overcast,10,2012-11-13 19:41:00
2:56 PM,73.9,63.0,68,30.15,10.0,North,8.1,-,N/A,,Overcast,10,2012-11-13 19:56:00
3:22 PM,69.8,60.8,73,30.16,10.0,NE,15.0,-,N/A,,Overcast,40,2012-11-13 20:22:00
3:36 PM,69.8,60.8,73,30.16,10.0,North,12.7,-,N/A,,Overcast,10,2012-11-13 20:36:00
3:56 PM,66.0,57.0,73,30.17,10.0,North,12.7,-,N/A,,Overcast,10,2012-11-13 20:56:00
4:21 PM,62.6,55.4,77,30.19,10.0,North,12.7,-,N/A,,Overcast,10,2012-11-13 21:21:00
4:56 PM,60.1,53.1,78,30.20,10.0,North,13.8,-,N/A,,Overcast,10,2012-11-13 21:56:00
5:56 PM,57.0,51.1,81,30.22,10.0,North,13.8,-,N/A,,Overcast,10,2012-11-13 22:56:00
6:56 PM,55.0,50.0,83,30.25,10.0,North,10.4,-,N/A,,Overcast,10,2012-11-13 23:56:00
7:56 PM,54.0,48.9,83,30.26,10.0,NNE,12.7,-,N/A,,Overcast,20,2012-11-14 00:56:00
8:56 PM,54.0,48.9,83,30.27,10.0,NNE,15.0,19.6,N/A,,Overcast,30,2012-11-14 01:56:00
9:56 PM,54.0,48.9,83,30.28,10.0,NNE,11.5,-,N/A,,Overcast,30,2012-11-14 02:56:00
10:56 PM,53.1,48.9,86,30.29,10.0,NE,12.7,-,N/A,,Overcast,50,2012-11-14 03:56:00
11:22 PM,53.6,48.2,82,30.28,10.0,NNE,12.7,-,N/A,,Overcast,30,2012-11-14 04:22:00
11:56 PM,53.1,50.0,89,30.28,10.0,NNE,11.5,-,N/A,,Overcast,30,2012-11-14 04:56:00